createdAt,value
2022-08-12T00:00:18.710Z,1.93
2022-08-12T00:03:04.564Z,2.30
2022-08-12T00:06:01.730Z,2.47
2022-08-12T00:08:51.745Z,1.80
2022-08-12T00:11:37.938Z,2.13
2022-08-12T00:14:23.468Z,2.30
2022-08-12T00:17:09.041Z,2.80
2022-08-12T00:19:54.671Z,2.00
2022-08-12T00:22:41.680Z,2.47
2022-08-12T00:26:00.365Z,1.93
2022-08-12T00:28:33.936Z,1.83
2022-08-12T00:31:19.451Z,2.70
2022-08-12T00:34:05.169Z,2.20
2022-08-12T00:36:51.411Z,2.07
2022-08-12T00:39:38.790Z,2.17
2022-08-12T00:42:12.823Z,2.20
2022-08-12T00:44:43.103Z,2.30
2022-08-12T00:47:24.254Z,1.93
2022-08-12T00:49:53.951Z,1.67
2022-08-12T00:52:22.294Z,1.90
2022-08-12T00:54:53.284Z,2.60
2022-08-12T00:57:22.660Z,2.53
2022-08-12T00:59:52.783Z,2.60
2022-08-12T01:02:26.899Z,2.97
2022-08-12T01:05:16.219Z,2.77
2022-08-12T01:08:02.312Z,2.10
2022-08-12T01:10:50.901Z,2.30
2022-08-12T01:13:20.526Z,2.60
2022-08-12T01:15:52.206Z,2.43
2022-08-12T01:18:21.448Z,2.50
2022-08-12T01:20:55.883Z,2.30
2022-08-12T01:23:52.797Z,2.20
2022-08-12T01:26:24.372Z,1.90
2022-08-12T01:28:57.054Z,2.30
2022-08-12T01:31:29.298Z,1.93
2022-08-12T01:34:03.511Z,2.50
2022-08-12T01:36:41.239Z,2.10
2022-08-12T01:39:09.594Z,2.20
2022-08-12T01:41:43.031Z,2.47
2022-08-12T01:44:20.665Z,2.33
2022-08-12T01:46:57.620Z,1.73
2022-08-12T01:49:48.615Z,1.70
2022-08-12T01:52:28.490Z,3.27
2022-08-12T01:54:58.682Z,2.40
2022-08-12T01:57:58.867Z,2.77
2022-08-12T02:00:35.992Z,2.67
2022-08-12T02:03:27.141Z,1.90
2022-08-12T02:06:18.151Z,2.67
2022-08-12T02:09:06.462Z,2.40
2022-08-12T02:11:35.821Z,2.67
2022-08-12T02:14:19.946Z,2.70
2022-08-12T02:16:59.954Z,2.40
2022-08-12T02:19:49.545Z,1.97
2022-08-12T02:22:28.629Z,3.10
2022-08-12T02:25:03.394Z,2.10
2022-08-12T02:27:36.470Z,2.50
2022-08-12T02:30:08.929Z,2.40
2022-08-12T02:32:40.443Z,2.40
2022-08-12T02:35:11.450Z,2.07
2022-08-12T02:37:40.787Z,2.53
2022-08-12T02:40:12.426Z,2.40
2022-08-12T02:42:53.886Z,2.47
2022-08-12T02:45:33.551Z,3.00
2022-08-12T02:48:06.269Z,2.43
2022-08-12T02:50:42.217Z,2.43
2022-08-12T02:53:10.584Z,2.43
2022-08-12T02:55:38.825Z,2.23
2022-08-12T02:58:12.442Z,2.40
2022-08-12T03:00:45.010Z,2.60
2022-08-12T03:03:15.268Z,2.40
2022-08-12T03:05:50.820Z,3.00
2022-08-12T03:08:31.517Z,2.67
2022-08-12T03:11:04.773Z,2.50
2022-08-12T03:13:40.176Z,2.80
2022-08-12T03:16:09.854Z,3.33
2022-08-12T03:18:38.160Z,2.47
2022-08-12T03:21:06.808Z,2.73
2022-08-12T03:23:35.014Z,2.60
2022-08-12T03:26:04.600Z,2.13
2022-08-12T03:28:56.587Z,3.00
2022-08-12T03:31:29.776Z,2.80
2022-08-12T03:34:03.103Z,3.40
2022-08-12T03:36:33.557Z,2.13
2022-08-12T03:39:18.224Z,2.70
2022-08-12T03:41:51.383Z,2.80
2022-08-12T03:44:42.562Z,2.73
2022-08-12T03:47:35.360Z,3.13
2022-08-12T03:50:21.470Z,2.50
2022-08-12T03:53:07.103Z,2.97
2022-08-12T03:55:53.310Z,3.20
2022-08-12T03:58:39.477Z,2.53
2022-08-12T04:01:07.809Z,3.03
2022-08-12T04:03:55.935Z,3.10
2022-08-12T04:06:35.219Z,3.50
2022-08-12T04:09:16.394Z,3.30
2022-08-12T04:12:03.068Z,3.17
2022-08-12T04:14:31.524Z,3.40
2022-08-12T04:16:59.854Z,3.00
2022-08-12T04:19:29.581Z,3.50
2022-08-12T04:22:03.105Z,2.80
2022-08-12T04:24:34.876Z,3.20
2022-08-12T04:27:05.125Z,2.80
2022-08-12T04:30:31.896Z,3.43
2022-08-12T04:32:22.834Z,3.53
2022-08-12T04:34:52.548Z,3.17
2022-08-12T04:37:20.797Z,3.10
2022-08-12T04:39:49.211Z,2.97
2022-08-12T04:42:17.494Z,2.57
2022-08-12T04:44:45.668Z,3.37
2022-08-12T04:47:15.215Z,3.10
2022-08-12T04:49:46.475Z,3.27
2022-08-12T04:52:16.099Z,3.57
2022-08-12T04:54:44.718Z,3.53
2022-08-12T04:57:13.109Z,4.33
2022-08-12T04:59:47.713Z,3.30
2022-08-12T05:02:21.735Z,3.43
2022-08-12T05:04:52.530Z,3.80
2022-08-12T05:07:24.357Z,3.90
2022-08-12T05:09:59.916Z,3.40
2022-08-12T05:12:33.909Z,3.17
2022-08-12T05:15:02.150Z,3.57
2022-08-12T05:17:30.371Z,3.30
2022-08-12T05:20:00.135Z,3.60
2022-08-12T05:22:30.243Z,3.20
2022-08-12T05:25:06.830Z,3.27
2022-08-12T05:27:35.460Z,3.47
2022-08-12T05:30:07.822Z,2.70
2022-08-12T05:32:37.344Z,2.87
2022-08-12T05:35:08.167Z,3.47
2022-08-12T05:37:37.786Z,3.67
2022-08-12T05:40:11.239Z,3.57
2022-08-12T05:42:40.153Z,4.17
2022-08-12T05:45:10.581Z,3.80
2022-08-12T05:47:53.254Z,3.80
2022-08-12T05:50:22.680Z,4.00
2022-08-12T05:52:54.005Z,3.40
2022-08-12T05:55:25.840Z,3.30
2022-08-12T05:57:56.634Z,2.90
2022-08-12T06:00:25.976Z,3.50
2022-08-12T06:02:57.027Z,3.50
2022-08-12T06:05:25.316Z,3.63
2022-08-12T06:08:01.556Z,3.23
2022-08-12T06:10:32.905Z,2.90
2022-08-12T06:13:02.589Z,3.03
2022-08-12T06:15:31.167Z,3.90
2022-08-12T06:18:13.775Z,3.40
2022-08-12T06:20:45.135Z,3.10
2022-08-12T06:23:15.343Z,2.83
2022-08-12T06:25:43.693Z,2.60
2022-08-12T06:28:17.534Z,2.40
2022-08-12T06:30:53.060Z,2.00
2022-08-12T06:33:55.484Z,2.53
2022-08-12T06:36:14.767Z,1.90
2022-08-12T06:38:51.135Z,2.37
2022-08-12T06:41:36.885Z,2.20
2022-08-12T06:44:09.024Z,3.20
2022-08-12T06:46:38.917Z,3.03
2022-08-12T06:49:08.640Z,2.00
2022-08-12T06:51:36.902Z,2.37
2022-08-12T06:54:07.330Z,2.77
2022-08-12T06:59:25.771Z,2.23
2022-08-12T07:01:55.015Z,1.93
2022-08-12T07:04:36.322Z,1.73
2022-08-12T07:07:07.179Z,2.13
2022-08-12T07:10:01.328Z,2.10
2022-08-12T07:12:27.977Z,1.90
2022-08-12T07:14:57.667Z,2.20
2022-08-12T07:17:26.030Z,2.10
2022-08-12T07:19:57.051Z,1.70
2022-08-12T07:22:29.262Z,1.63
2022-08-12T07:25:16.441Z,1.60
2022-08-12T07:27:46.695Z,1.73
2022-08-12T07:30:15.415Z,1.33
2022-08-12T07:32:51.548Z,2.00
2022-08-12T07:35:20.374Z,1.67
2022-08-12T07:37:50.392Z,1.30
2022-08-12T07:40:20.641Z,1.70
2022-08-12T07:42:48.914Z,1.20
2022-08-12T07:45:17.701Z,1.00
2022-08-12T07:47:45.997Z,1.37
2022-08-12T07:50:16.907Z,1.40
2022-08-12T07:52:48.848Z,1.87
2022-08-12T07:55:19.628Z,1.57
2022-08-12T07:57:55.857Z,1.30
2022-08-12T08:00:24.307Z,1.23
2022-08-12T08:02:54.469Z,1.73
2022-08-12T08:05:24.013Z,1.40
2022-08-12T08:07:53.541Z,1.57
2022-08-12T08:10:23.174Z,1.60
2022-08-12T08:12:53.479Z,1.30
2022-08-12T08:15:38.603Z,1.10
2022-08-12T08:18:25.733Z,1.10
2022-08-12T08:20:55.930Z,1.00
2022-08-12T08:23:46.485Z,1.13
2022-08-12T08:26:16.492Z,0.80
2022-08-12T08:28:44.887Z,0.97
2022-08-12T08:31:14.274Z,0.80
2022-08-12T08:34:05.250Z,0.93
2022-08-12T08:36:30.900Z,0.87
2022-08-12T08:38:59.151Z,1.00
2022-08-12T08:42:17.580Z,0.90
2022-08-12T08:44:36.370Z,0.97
2022-08-12T08:47:05.657Z,0.80
2022-08-12T08:49:37.319Z,0.80
2022-08-12T08:52:06.554Z,0.80
2022-08-12T08:54:34.798Z,0.90
2022-08-12T08:57:05.521Z,1.37
2022-08-12T08:59:33.758Z,0.80
2022-08-12T09:02:02.507Z,1.27
2022-08-12T09:05:12.752Z,0.80
2022-08-12T09:07:43.798Z,0.70
2022-08-12T09:10:23.463Z,1.20
2022-08-12T09:13:23.115Z,0.70
2022-08-12T09:18:45.567Z,1.20
2022-08-12T09:21:14.917Z,1.33
2022-08-12T09:24:01.137Z,0.90
2022-08-12T09:26:31.585Z,1.10
2022-08-12T09:29:11.815Z,0.80
2022-08-12T09:32:07.973Z,1.30
2022-08-12T09:34:33.755Z,1.60
2022-08-12T09:37:20.391Z,1.10
2022-08-12T09:40:05.066Z,0.83
2022-08-12T09:43:16.952Z,1.27
2022-08-12T09:46:06.823Z,0.90
2022-08-12T09:48:39.209Z,1.00
2022-08-12T09:51:17.230Z,1.00
2022-08-12T09:54:05.943Z,0.90
2022-08-12T09:57:01.095Z,0.80
2022-08-12T10:00:15.704Z,1.30
2022-08-12T10:02:45.302Z,1.10
2022-08-12T10:05:13.279Z,0.93
2022-08-12T10:07:45.779Z,0.90
2022-08-12T10:10:24.053Z,1.10
2022-08-12T10:13:36.322Z,0.90
2022-08-12T10:16:22.164Z,0.80
2022-08-12T10:18:54.679Z,1.30
2022-08-12T10:21:24.351Z,1.00
2022-08-12T10:24:06.015Z,1.00
2022-08-12T10:26:51.674Z,0.93
2022-08-12T10:30:02.968Z,0.90
2022-08-12T10:32:45.205Z,1.00
2022-08-12T10:35:17.014Z,0.80
2022-08-12T10:38:36.642Z,1.03
2022-08-12T10:40:55.476Z,0.87
2022-08-12T10:43:56.082Z,1.20
2022-08-12T10:46:31.308Z,0.97
2022-08-12T10:49:07.074Z,0.90
2022-08-12T10:52:32.495Z,0.80
2022-08-12T10:54:41.571Z,0.83
2022-08-12T10:57:18.323Z,0.80
2022-08-12T11:00:31.701Z,1.10
2022-08-12T11:04:23.880Z,1.00
2022-08-12T11:07:08.081Z,1.03
2022-08-12T11:08:43.310Z,0.60
2022-08-12T11:12:07.861Z,1.10
2022-08-12T11:14:09.835Z,0.90
2022-08-12T11:17:43.273Z,1.10
2022-08-12T11:19:45.988Z,0.80
2022-08-12T11:22:14.411Z,0.80
2022-08-12T11:24:51.172Z,0.83
2022-08-12T11:27:20.130Z,0.70
2022-08-12T11:30:02.119Z,0.80
2022-08-12T11:32:39.024Z,0.97
2022-08-12T11:35:11.800Z,1.10
2022-08-12T11:37:58.777Z,0.70
2022-08-12T11:40:29.582Z,0.83
2022-08-12T11:43:17.157Z,0.90
2022-08-12T11:45:47.191Z,0.97
2022-08-12T11:48:16.688Z,0.97
2022-08-12T11:50:47.371Z,0.83
2022-08-12T11:53:58.341Z,1.30
2022-08-12T11:56:08.016Z,1.13
2022-08-12T12:02:01.350Z,0.90
2022-08-12T12:04:29.251Z,1.00
2022-08-12T12:07:07.485Z,1.00
2022-08-12T12:09:52.259Z,0.93
2022-08-12T12:12:25.209Z,1.00
2022-08-12T12:14:54.164Z,0.87
2022-08-12T12:17:23.395Z,0.77
2022-08-12T12:19:51.630Z,0.80
2022-08-12T12:22:32.008Z,0.87
2022-08-12T12:25:08.984Z,0.90
2022-08-12T12:28:04.140Z,1.03
2022-08-12T12:30:34.087Z,0.93
2022-08-12T12:33:02.362Z,0.80
2022-08-12T12:36:18.440Z,0.80
2022-08-12T12:38:19.978Z,1.00
2022-08-12T12:40:50.614Z,1.47
2022-08-12T12:43:42.527Z,0.93
2022-08-12T12:46:09.632Z,1.23
2022-08-12T12:48:41.393Z,0.70
2022-08-12T12:51:48.951Z,0.93
2022-08-12T12:54:09.958Z,1.17
2022-08-12T12:56:41.873Z,1.00
2022-08-12T12:59:54.716Z,1.00
2022-08-12T13:02:08.189Z,1.00
2022-08-12T13:04:37.857Z,0.80
2022-08-12T13:07:07.015Z,1.00
2022-08-12T13:09:36.890Z,0.70
2022-08-12T13:12:10.973Z,0.80
2022-08-12T13:14:40.590Z,1.10
2022-08-12T13:17:14.481Z,0.90
2022-08-12T13:19:48.355Z,0.73
2022-08-12T13:22:19.887Z,1.17
2022-08-12T13:24:55.073Z,1.00
2022-08-12T13:27:28.270Z,0.97
2022-08-12T13:30:06.807Z,0.90
2022-08-12T13:32:35.414Z,0.90
2022-08-12T13:35:04.021Z,1.07
2022-08-12T13:37:55.301Z,0.90
2022-08-12T13:40:24.879Z,0.80
2022-08-12T13:42:57.678Z,1.03
2022-08-12T13:45:29.023Z,0.80
2022-08-12T13:47:58.544Z,0.87
2022-08-12T13:50:32.378Z,0.80
2022-08-12T13:53:06.177Z,0.90
2022-08-12T13:55:59.617Z,0.80
2022-08-12T13:58:32.918Z,1.03
2022-08-12T14:01:06.317Z,0.93
2022-08-12T14:03:50.147Z,1.00
2022-08-12T14:06:19.975Z,1.40
2022-08-12T14:08:49.845Z,1.00
2022-08-12T14:11:19.342Z,1.00
2022-08-12T14:14:03.470Z,1.00
2022-08-12T14:16:48.849Z,1.03
2022-08-12T14:19:24.466Z,1.00
2022-08-12T14:21:58.861Z,1.20
2022-08-12T14:24:30.721Z,1.30
2022-08-12T14:27:02.142Z,1.00
2022-08-12T14:29:55.817Z,1.13
2022-08-12T14:32:21.094Z,1.03
2022-08-12T14:34:52.981Z,1.10
2022-08-12T14:37:55.565Z,1.10
2022-08-12T14:40:18.657Z,1.27
2022-08-12T14:42:47.219Z,1.00
2022-08-12T14:45:15.739Z,1.00
2022-08-12T14:47:58.330Z,0.80
2022-08-12T14:50:41.211Z,1.30
2022-08-12T14:59:23.541Z,1.00
2022-08-12T15:01:52.433Z,1.20
2022-08-12T15:04:29.159Z,1.07
2022-08-12T15:06:58.167Z,1.00
2022-08-12T15:09:29.537Z,0.90
2022-08-12T15:12:04.032Z,1.20
2022-08-12T15:14:35.436Z,0.93
2022-08-12T15:17:07.119Z,1.30
2022-08-12T15:20:14.936Z,1.20
2022-08-12T15:22:37.939Z,1.00
2022-08-12T15:25:08.955Z,1.03
2022-08-12T15:28:05.498Z,1.07
2022-08-12T15:30:32.292Z,0.93
2022-08-12T15:33:12.374Z,1.03
2022-08-12T15:35:50.329Z,1.20
2022-08-12T15:38:22.252Z,0.90
2022-08-12T15:40:54.045Z,1.00
2022-08-12T15:43:51.728Z,1.10
2022-08-12T15:46:15.770Z,1.00
2022-08-12T15:48:46.715Z,1.00
2022-08-12T15:51:57.314Z,1.30
2022-08-12T15:54:33.472Z,1.40
2022-08-12T15:57:08.347Z,1.00
2022-08-12T16:00:02.301Z,1.40
2022-08-12T16:02:29.588Z,1.37
2022-08-12T16:04:58.604Z,1.00
2022-08-12T16:07:32.617Z,1.10
2022-08-12T16:10:08.793Z,1.63
2022-08-12T16:12:43.487Z,1.00
2022-08-12T16:15:25.096Z,1.37
2022-08-12T16:18:15.161Z,1.10
2022-08-12T16:20:46.560Z,1.40
2022-08-12T16:23:35.852Z,1.20
2022-08-12T16:26:15.063Z,1.40
2022-08-12T16:28:44.059Z,1.40
2022-08-12T16:31:23.434Z,1.00
2022-08-12T16:33:58.923Z,1.17
2022-08-12T16:36:28.265Z,1.40
2022-08-12T16:39:01.347Z,1.27
2022-08-12T16:41:38.116Z,1.30
2022-08-12T16:44:08.972Z,1.30
2022-08-12T16:46:37.893Z,1.50
2022-08-12T16:49:13.416Z,1.27
2022-08-12T16:51:46.286Z,1.30
2022-08-12T16:54:18.499Z,1.50
2022-08-12T16:56:55.152Z,1.20
2022-08-12T16:59:30.862Z,1.30
2022-08-12T17:02:31.927Z,1.43
2022-08-12T17:05:04.779Z,1.60
2022-08-12T17:07:36.472Z,1.17
2022-08-12T17:10:08.771Z,1.90
2022-08-12T17:12:37.575Z,1.17
2022-08-12T17:15:51.233Z,1.43
2022-08-12T17:18:39.542Z,1.17
2022-08-12T17:20:47.005Z,1.20
2022-08-12T17:23:16.654Z,1.50
2022-08-12T17:25:48.451Z,1.27
2022-08-12T17:28:17.001Z,1.53
2022-08-12T17:30:45.580Z,1.50
2022-08-12T17:33:25.553Z,2.00
2022-08-12T17:35:53.353Z,1.43
2022-08-12T17:38:22.848Z,1.40
2022-08-12T17:40:54.521Z,1.37
2022-08-12T17:43:56.566Z,1.40
2022-08-12T17:46:12.588Z,1.53
2022-08-12T17:48:55.496Z,1.63
2022-08-12T17:51:25.994Z,1.73
2022-08-12T17:54:11.112Z,1.37
2022-08-12T17:56:43.383Z,1.47
2022-08-12T17:59:12.442Z,1.53
2022-08-12T18:01:44.299Z,1.50
2022-08-12T18:04:22.083Z,1.40
2022-08-12T18:06:52.389Z,1.30
2022-08-12T18:09:21.188Z,1.50
2022-08-12T18:12:08.665Z,1.70
2022-08-12T18:14:40.977Z,1.57
2022-08-12T18:17:10.249Z,1.37
2022-08-12T18:20:07.121Z,1.90
2022-08-12T18:22:30.557Z,2.20
2022-08-12T18:26:10.022Z,1.90
2022-08-12T18:28:16.610Z,1.67
2022-08-12T18:30:52.571Z,2.13
2022-08-12T18:33:24.939Z,1.80
2022-08-12T18:35:55.699Z,1.60
2022-08-12T18:38:26.865Z,1.93
2022-08-12T18:41:21.101Z,1.97
2022-08-12T18:43:59.817Z,2.07
2022-08-12T18:46:54.328Z,1.83
2022-08-12T18:49:29.677Z,1.83
2022-08-12T18:52:05.071Z,3.57
2022-08-12T18:54:36.019Z,3.10
2022-08-12T18:57:19.712Z,3.37
2022-08-12T19:00:07.084Z,3.37
2022-08-12T19:02:39.803Z,2.63
2022-08-12T19:05:11.227Z,2.53
2022-08-12T19:08:00.147Z,4.13
2022-08-12T19:10:30.429Z,3.33
2022-08-12T19:13:23.017Z,3.80
2022-08-12T19:15:57.460Z,3.50
2022-08-12T19:18:29.422Z,3.30
2022-08-12T19:21:00.421Z,2.67
2022-08-12T19:23:35.929Z,2.53
2022-08-12T19:26:03.492Z,2.90
2022-08-12T19:28:35.523Z,4.13
2022-08-12T19:31:55.651Z,3.50
2022-08-12T19:37:26.731Z,2.70
2022-08-12T19:40:09.309Z,3.43
2022-08-12T19:42:42.699Z,2.70
2022-08-12T19:45:14.037Z,2.33
2022-08-12T19:47:46.676Z,2.80
2022-08-12T19:50:19.938Z,3.13
2022-08-12T19:52:51.221Z,2.97
2022-08-12T19:55:21.754Z,3.57
2022-08-12T19:58:02.524Z,3.37
2022-08-12T20:00:34.518Z,4.00
2022-08-12T20:03:06.319Z,4.10
2022-08-12T20:06:05.526Z,4.30
2022-08-12T20:08:34.235Z,3.80
2022-08-12T20:12:11.963Z,3.73
2022-08-12T20:14:00.625Z,3.40
2022-08-12T20:16:52.480Z,4.10
2022-08-12T20:19:52.531Z,5.33
2022-08-12T20:22:23.333Z,3.80
2022-08-12T20:24:55.173Z,4.27
2022-08-12T20:27:29.627Z,4.17
2022-08-12T20:30:13.830Z,3.90
2022-08-12T20:32:53.859Z,4.13
2022-08-12T20:35:24.694Z,3.80
2022-08-12T20:38:06.850Z,4.00
2022-08-12T20:40:42.235Z,3.60
2022-08-12T20:43:24.279Z,4.40
2022-08-12T20:45:57.466Z,4.50
2022-08-12T20:48:28.689Z,4.80
2022-08-12T20:51:04.581Z,4.10
2022-08-12T20:53:57.591Z,4.10
2022-08-12T20:56:31.012Z,4.20
2022-08-12T20:59:01.076Z,3.00
2022-08-12T21:01:46.593Z,3.13
2022-08-12T21:04:30.864Z,3.03
2022-08-12T21:07:04.595Z,2.97
2022-08-12T21:09:40.722Z,3.10
2022-08-12T21:12:31.156Z,2.53
2022-08-12T21:15:16.997Z,2.87
2022-08-12T21:18:00.898Z,3.03
2022-08-12T21:20:37.856Z,2.77
2022-08-12T21:23:07.647Z,3.07
2022-08-12T21:25:44.640Z,3.37
2022-08-12T21:28:14.731Z,3.20
2022-08-12T21:31:10.462Z,2.70
2022-08-12T21:33:58.475Z,2.80
2022-08-12T21:36:22.763Z,3.37
2022-08-12T21:39:18.560Z,2.90
2022-08-12T21:41:51.540Z,2.93
2022-08-12T21:44:24.288Z,3.03
2022-08-12T21:47:20.206Z,3.00
2022-08-12T21:49:55.558Z,2.70
2022-08-12T21:52:28.240Z,2.97
2022-08-12T21:55:08.508Z,4.20
2022-08-12T21:57:50.636Z,3.80
2022-08-12T22:00:20.825Z,3.70
2022-08-12T22:03:07.747Z,3.77
2022-08-12T22:05:53.828Z,4.10
2022-08-12T22:08:25.666Z,3.90
2022-08-12T22:10:56.287Z,4.23
2022-08-12T22:14:06.925Z,5.47
2022-08-12T22:16:14.251Z,4.97
2022-08-12T22:18:50.326Z,5.07
2022-08-12T22:21:22.160Z,4.33
2022-08-12T22:24:05.232Z,4.30
2022-08-12T22:26:37.646Z,4.13
2022-08-12T22:29:23.963Z,3.43
2022-08-12T22:31:55.783Z,4.03
2022-08-12T22:34:29.528Z,5.00
2022-08-12T22:36:58.269Z,4.30
2022-08-12T22:39:26.712Z,4.00
2022-08-12T22:42:28.786Z,4.00
2022-08-12T22:45:16.547Z,3.57
2022-08-12T22:47:54.790Z,4.10
2022-08-12T22:50:28.064Z,4.03
2022-08-12T22:53:15.117Z,4.40
2022-08-12T22:56:05.489Z,4.10
2022-08-12T22:58:36.706Z,3.47
2022-08-12T23:01:10.902Z,3.90
2022-08-12T23:03:47.879Z,4.20
2022-08-12T23:06:20.150Z,3.87
2022-08-12T23:08:48.591Z,3.93
2022-08-12T23:11:17.956Z,4.53
2022-08-12T23:13:56.075Z,4.23
2022-08-12T23:16:31.009Z,3.63
2022-08-12T23:19:10.074Z,3.60
2022-08-12T23:22:06.108Z,3.27
2022-08-12T23:24:55.612Z,3.37
2022-08-12T23:27:44.085Z,3.13
2022-08-12T23:30:25.028Z,3.87
2022-08-12T23:33:00.735Z,3.07
2022-08-12T23:35:45.670Z,2.87
2022-08-12T23:38:30.188Z,2.70
2022-08-12T23:41:00.946Z,2.90
2022-08-12T23:43:39.301Z,3.13
2022-08-12T23:46:11.224Z,3.07
2022-08-12T23:48:39.989Z,3.07
2022-08-12T23:51:22.727Z,2.60
2022-08-12T23:53:55.275Z,3.10
2022-08-12T23:56:24.728Z,2.83
2022-08-12T23:58:55.062Z,3.00
